sensor_id;sensor_type;location;lat;lon;timestamp;pressure;altitude;pressure_sealevel;temperature;humidity
6835;BME280;3455;42.150;24.734;2022-10-16T00:01:31;66963.38;;;16.07;61.64
6835;BME280;3455;42.150;24.734;2022-10-16T00:03:59;66971.13;;;16.11;61.93
6835;BME280;3455;42.150;24.734;2022-10-16T00:06:27;66916.78;;;15.68;63.03
6835;BME280;3455;42.150;24.734;2022-10-16T00:08:54;66896.16;;;15.58;64.41
6835;BME280;3455;42.150;24.734;2022-10-16T00:11:24;66921.16;;;15.85;63.55
6835;BME280;3455;42.150;24.734;2022-10-16T00:13:55;66944.88;;;15.79;63.84
6835;BME280;3455;42.150;24.734;2022-10-16T00:16:22;66926.31;;;15.63;64.10
6835;BME280;3455;42.150;24.734;2022-10-16T00:18:49;66924.91;;;15.75;63.80
6835;BME280;3455;42.150;24.734;2022-10-16T00:21:18;66913.00;;;15.89;63.50
6835;BME280;3455;42.150;24.734;2022-10-16T00:23:45;66931.72;;;15.88;63.50
6835;BME280;3455;42.150;24.734;2022-10-16T00:26:14;66936.50;;;15.85;63.45
6835;BME280;3455;42.150;24.734;2022-10-16T00:28:45;66952.03;;;15.94;63.43
6835;BME280;3455;42.150;24.734;2022-10-16T00:31:12;66972.22;;;15.96;63.09
6835;BME280;3455;42.150;24.734;2022-10-16T00:33:39;66930.63;;;16.03;63.07
6835;BME280;3455;42.150;24.734;2022-10-16T00:36:09;66958.81;;;16.19;62.56
6835;BME280;3455;42.150;24.734;2022-10-16T00:38:36;66957.88;;;15.88;63.12
6835;BME280;3455;42.150;24.734;2022-10-16T00:41:03;66902.59;;;15.69;64.38
6835;BME280;3455;42.150;24.734;2022-10-16T00:43:36;66903.31;;;15.74;64.04
6835;BME280;3455;42.150;24.734;2022-10-16T00:46:11;66913.66;;;15.79;63.63
6835;BME280;3455;42.150;24.734;2022-10-16T00:48:39;66876.75;;;15.28;64.81
6835;BME280;3455;42.150;24.734;2022-10-16T00:51:07;66849.09;;;15.35;64.60
6835;BME280;3455;42.150;24.734;2022-10-16T00:53:35;66904.53;;;15.52;64.17
6835;BME280;3455;42.150;24.734;2022-10-16T00:56:03;66914.97;;;15.50;64.18
6835;BME280;3455;42.150;24.734;2022-10-16T00:58:30;66897.09;;;15.50;64.07
6835;BME280;3455;42.150;24.734;2022-10-16T01:00:56;66894.38;;;15.30;65.31
6835;BME280;3455;42.150;24.734;2022-10-16T01:03:28;66883.91;;;15.43;65.43
6835;BME280;3455;42.150;24.734;2022-10-16T01:06:04;66892.84;;;15.37;65.17
6835;BME280;3455;42.150;24.734;2022-10-16T01:08:41;66898.72;;;15.47;64.91
6835;BME280;3455;42.150;24.734;2022-10-16T01:11:17;66902.69;;;15.46;64.91
6835;BME280;3455;42.150;24.734;2022-10-16T01:13:53;66912.50;;;15.28;65.54
6835;BME280;3455;42.150;24.734;2022-10-16T01:16:31;66931.47;;;15.40;64.87
6835;BME280;3455;42.150;24.734;2022-10-16T01:19:09;66898.63;;;15.43;64.93
6835;BME280;3455;42.150;24.734;2022-10-16T01:21:43;66903.16;;;15.42;65.08
6835;BME280;3455;42.150;24.734;2022-10-16T01:24:24;66854.94;;;15.17;65.85
6835;BME280;3455;42.150;24.734;2022-10-16T01:27:12;66851.94;;;15.10;66.05
6835;BME280;3455;42.150;24.734;2022-10-16T01:29:51;66883.06;;;15.06;66.44
6835;BME280;3455;42.150;24.734;2022-10-16T01:32:25;66852.44;;;15.06;66.54
6835;BME280;3455;42.150;24.734;2022-10-16T01:35:02;66820.13;;;14.82;67.45
6835;BME280;3455;42.150;24.734;2022-10-16T01:37:37;66794.31;;;14.68;68.71
6835;BME280;3455;42.150;24.734;2022-10-16T01:40:13;66818.75;;;14.72;68.59
6835;BME280;3455;42.150;24.734;2022-10-16T01:42:50;66820.38;;;14.69;69.14
6835;BME280;3455;42.150;24.734;2022-10-16T01:45:22;66812.63;;;14.75;68.18
6835;BME280;3455;42.150;24.734;2022-10-16T01:47:55;66850.28;;;14.86;67.88
6835;BME280;3455;42.150;24.734;2022-10-16T01:50:27;66824.66;;;14.82;68.26
6835;BME280;3455;42.150;24.734;2022-10-16T01:52:55;66844.59;;;14.86;67.49
6835;BME280;3455;42.150;24.734;2022-10-16T01:55:29;66831.56;;;14.99;67.49
6835;BME280;3455;42.150;24.734;2022-10-16T01:57:59;66848.88;;;14.87;67.51
6835;BME280;3455;42.150;24.734;2022-10-16T02:00:29;66851.09;;;14.85;67.59
6835;BME280;3455;42.150;24.734;2022-10-16T02:02:58;66866.84;;;14.92;67.08
6835;BME280;3455;42.150;24.734;2022-10-16T02:05:31;66896.50;;;15.11;66.32
6835;BME280;3455;42.150;24.734;2022-10-16T02:08:00;66903.69;;;15.15;65.69
6835;BME280;3455;42.150;24.734;2022-10-16T02:10:27;66863.78;;;15.18;65.30
6835;BME280;3455;42.150;24.734;2022-10-16T02:13:00;66916.06;;;15.35;65.03
6835;BME280;3455;42.150;24.734;2022-10-16T02:15:29;66874.50;;;15.03;65.74
6835;BME280;3455;42.150;24.734;2022-10-16T02:17:56;66850.75;;;14.82;66.32
6835;BME280;3455;42.150;24.734;2022-10-16T02:20:26;66875.69;;;14.82;66.47
6835;BME280;3455;42.150;24.734;2022-10-16T02:22:54;66820.50;;;14.73;66.56
6835;BME280;3455;42.150;24.734;2022-10-16T02:25:27;66796.06;;;14.47;68.12
6835;BME280;3455;42.150;24.734;2022-10-16T02:28:00;66809.63;;;14.46;68.52
6835;BME280;3455;42.150;24.734;2022-10-16T02:30:32;66818.78;;;14.49;69.18
6835;BME280;3455;42.150;24.734;2022-10-16T02:33:03;66843.91;;;14.81;67.99
6835;BME280;3455;42.150;24.734;2022-10-16T02:35:31;66838.94;;;14.74;67.63
6835;BME280;3455;42.150;24.734;2022-10-16T02:37:59;66788.06;;;14.45;69.20
6835;BME280;3455;42.150;24.734;2022-10-16T02:40:26;66784.19;;;14.12;70.29
6835;BME280;3455;42.150;24.734;2022-10-16T02:42:55;66715.91;;;13.96;71.52
6835;BME280;3455;42.150;24.734;2022-10-16T02:45:23;66717.97;;;14.00;71.36
6835;BME280;3455;42.150;24.734;2022-10-16T02:47:50;66771.44;;;14.12;70.94
6835;BME280;3455;42.150;24.734;2022-10-16T02:50:17;66749.22;;;14.06;71.50
6835;BME280;3455;42.150;24.734;2022-10-16T02:52:44;66770.09;;;14.01;71.25
6835;BME280;3455;42.150;24.734;2022-10-16T02:55:10;66756.25;;;14.16;70.50
6835;BME280;3455;42.150;24.734;2022-10-16T02:57:37;66776.06;;;14.16;70.27
6835;BME280;3455;42.150;24.734;2022-10-16T03:00:06;66765.56;;;14.02;70.98
6835;BME280;3455;42.150;24.734;2022-10-16T03:02:35;66778.38;;;14.18;70.61
6835;BME280;3455;42.150;24.734;2022-10-16T03:05:01;66763.81;;;14.00;70.40
6835;BME280;3455;42.150;24.734;2022-10-16T03:07:28;66733.75;;;13.74;70.81
6835;BME280;3455;42.150;24.734;2022-10-16T03:09:55;66715.22;;;13.80;71.04
6835;BME280;3455;42.150;24.734;2022-10-16T03:12:22;66766.16;;;13.91;71.10
6835;BME280;3455;42.150;24.734;2022-10-16T03:14:48;66758.94;;;14.10;70.56
6835;BME280;3455;42.150;24.734;2022-10-16T03:17:15;66770.53;;;13.97;70.65
6835;BME280;3455;42.150;24.734;2022-10-16T03:19:44;66763.56;;;14.14;69.88
6835;BME280;3455;42.150;24.734;2022-10-16T03:22:10;66755.22;;;14.20;69.37
6835;BME280;3455;42.150;24.734;2022-10-16T03:24:37;66756.75;;;13.90;69.95
6835;BME280;3455;42.150;24.734;2022-10-16T03:27:04;66793.81;;;14.23;69.08
6835;BME280;3455;42.150;24.734;2022-10-16T03:29:31;66763.59;;;13.91;69.27
6835;BME280;3455;42.150;24.734;2022-10-16T03:31:58;66811.75;;;14.16;68.74
6835;BME280;3455;42.150;24.734;2022-10-16T03:34:25;66760.22;;;14.15;68.96
6835;BME280;3455;42.150;24.734;2022-10-16T03:36:53;66762.44;;;14.13;68.75
6835;BME280;3455;42.150;24.734;2022-10-16T03:39:20;66710.94;;;13.67;70.42
6835;BME280;3455;42.150;24.734;2022-10-16T03:41:46;66723.47;;;13.58;70.97
6835;BME280;3455;42.150;24.734;2022-10-16T03:44:13;66704.81;;;13.71;70.90
6835;BME280;3455;42.150;24.734;2022-10-16T03:46:40;66708.28;;;13.74;70.58
6835;BME280;3455;42.150;24.734;2022-10-16T03:49:07;66783.66;;;13.77;70.02
6835;BME280;3455;42.150;24.734;2022-10-16T03:51:34;66694.31;;;13.46;70.89
6835;BME280;3455;42.150;24.734;2022-10-16T03:54:02;66719.53;;;13.70;70.41
6835;BME280;3455;42.150;24.734;2022-10-16T03:56:29;66721.38;;;13.65;70.33
6835;BME280;3455;42.150;24.734;2022-10-16T03:58:56;66738.41;;;13.55;70.67
6835;BME280;3455;42.150;24.734;2022-10-16T04:01:22;66686.94;;;13.32;71.66
6835;BME280;3455;42.150;24.734;2022-10-16T04:03:49;66659.75;;;13.31;71.76
6835;BME280;3455;42.150;24.734;2022-10-16T04:06:16;66700.44;;;13.53;70.62
6835;BME280;3455;42.150;24.734;2022-10-16T04:08:43;66701.03;;;13.31;71.78
6835;BME280;3455;42.150;24.734;2022-10-16T04:11:11;66716.19;;;13.49;71.43
6835;BME280;3455;42.150;24.734;2022-10-16T04:13:38;66681.69;;;13.28;71.88
6835;BME280;3455;42.150;24.734;2022-10-16T04:16:05;66740.00;;;13.52;70.66
6835;BME280;3455;42.150;24.734;2022-10-16T04:18:32;66693.63;;;13.18;71.84
6835;BME280;3455;42.150;24.734;2022-10-16T04:21:02;66715.25;;;13.46;71.05
6835;BME280;3455;42.150;24.734;2022-10-16T04:23:29;66664.03;;;12.98;72.23
6835;BME280;3455;42.150;24.734;2022-10-16T04:25:56;66676.84;;;13.14;72.10
6835;BME280;3455;42.150;24.734;2022-10-16T04:28:24;66666.91;;;13.12;72.42
6835;BME280;3455;42.150;24.734;2022-10-16T04:30:50;66678.91;;;13.07;71.95
6835;BME280;3455;42.150;24.734;2022-10-16T04:33:17;66653.38;;;13.02;72.37
6835;BME280;3455;42.150;24.734;2022-10-16T04:35:44;66703.22;;;13.06;72.57
6835;BME280;3455;42.150;24.734;2022-10-16T04:38:10;66627.63;;;12.89;72.53
6835;BME280;3455;42.150;24.734;2022-10-16T04:40:37;66637.31;;;12.93;72.83
6835;BME280;3455;42.150;24.734;2022-10-16T04:43:04;66659.03;;;13.03;72.86
6835;BME280;3455;42.150;24.734;2022-10-16T04:45:34;66650.34;;;13.18;71.76
6835;BME280;3455;42.150;24.734;2022-10-16T04:48:00;66676.38;;;12.96;72.21
6835;BME280;3455;42.150;24.734;2022-10-16T04:50:27;66687.72;;;13.08;72.24
6835;BME280;3455;42.150;24.734;2022-10-16T04:52:54;66674.91;;;13.03;72.32
6835;BME280;3455;42.150;24.734;2022-10-16T04:55:20;66692.56;;;13.10;72.51
6835;BME280;3455;42.150;24.734;2022-10-16T04:57:47;66671.41;;;13.00;72.51
6835;BME280;3455;42.150;24.734;2022-10-16T05:00:15;66667.47;;;13.24;72.11
6835;BME280;3455;42.150;24.734;2022-10-16T05:02:43;66695.38;;;13.31;71.75
6835;BME280;3455;42.150;24.734;2022-10-16T05:05:10;66663.53;;;13.25;72.21
6835;BME280;3455;42.150;24.734;2022-10-16T05:07:37;66672.44;;;13.19;72.45
6835;BME280;3455;42.150;24.734;2022-10-16T05:10:04;66647.25;;;12.95;72.93
6835;BME280;3455;42.150;24.734;2022-10-16T05:12:31;66645.75;;;12.91;73.35
6835;BME280;3455;42.150;24.734;2022-10-16T05:14:58;66675.47;;;13.04;72.48
6835;BME280;3455;42.150;24.734;2022-10-16T05:17:25;66695.13;;;12.99;72.67
6835;BME280;3455;42.150;24.734;2022-10-16T05:19:53;66656.41;;;12.98;72.59
6835;BME280;3455;42.150;24.734;2022-10-16T05:22:20;66672.34;;;12.92;72.57
6835;BME280;3455;42.150;24.734;2022-10-16T05:24:46;66642.03;;;12.90;72.35
6835;BME280;3455;42.150;24.734;2022-10-16T05:27:13;66648.28;;;12.91;71.88
6835;BME280;3455;42.150;24.734;2022-10-16T05:29:44;66673.72;;;13.36;70.83
6835;BME280;3455;42.150;24.734;2022-10-16T05:32:12;66703.94;;;13.34;70.17
6835;BME280;3455;42.150;24.734;2022-10-16T05:34:38;66721.59;;;13.63;69.40
6835;BME280;3455;42.150;24.734;2022-10-16T05:37:07;66714.31;;;13.66;69.01
6835;BME280;3455;42.150;24.734;2022-10-16T05:39:33;66725.91;;;13.53;68.38
6835;BME280;3455;42.150;24.734;2022-10-16T05:42:02;66723.81;;;13.60;68.09
6835;BME280;3455;42.150;24.734;2022-10-16T05:44:28;66707.81;;;13.78;67.92
6835;BME280;3455;42.150;24.734;2022-10-16T05:46:55;66785.38;;;14.01;67.03
6835;BME280;3455;42.150;24.734;2022-10-16T05:49:22;66778.63;;;14.16;66.88
6835;BME280;3455;42.150;24.734;2022-10-16T05:51:49;66824.19;;;14.74;64.69
6835;BME280;3455;42.150;24.734;2022-10-16T05:54:17;66873.53;;;15.11;64.54
6835;BME280;3455;42.150;24.734;2022-10-16T05:56:44;66960.47;;;15.54;61.70
6835;BME280;3455;42.150;24.734;2022-10-16T05:59:10;67088.59;;;17.06;58.64
6835;BME280;3455;42.150;24.734;2022-10-16T06:01:37;67300.88;;;18.85;51.32
6835;BME280;3455;42.150;24.734;2022-10-16T06:04:04;67443.53;;;20.25;47.79
6835;BME280;3455;42.150;24.734;2022-10-16T06:06:31;67527.31;;;20.67;46.01
6835;BME280;3455;42.150;24.734;2022-10-16T06:08:57;67522.66;;;20.78;44.70
6835;BME280;3455;42.150;24.734;2022-10-16T06:11:28;67596.09;;;21.48;43.79
6835;BME280;3455;42.150;24.734;2022-10-16T06:13:56;67665.03;;;22.06;42.51
6835;BME280;3455;42.150;24.734;2022-10-16T06:16:24;67804.31;;;22.92;40.23
6835;BME280;3455;42.150;24.734;2022-10-16T06:18:51;67843.47;;;23.31;40.19
6835;BME280;3455;42.150;24.734;2022-10-16T06:21:20;67886.81;;;23.79;38.47
6835;BME280;3455;42.150;24.734;2022-10-16T06:23:47;67950.38;;;24.30;37.63
6835;BME280;3455;42.150;24.734;2022-10-16T06:26:16;68020.53;;;24.60;36.61
6835;BME280;3455;42.150;24.734;2022-10-16T06:28:45;68199.16;;;25.94;33.99
6835;BME280;3455;42.150;24.734;2022-10-16T06:31:12;68098.66;;;25.51;34.99
6835;BME280;3455;42.150;24.734;2022-10-16T06:33:39;68015.53;;;24.90;36.20
6835;BME280;3455;42.150;24.734;2022-10-16T06:36:07;68060.44;;;25.04;36.18
6835;BME280;3455;42.150;24.734;2022-10-16T06:38:35;68115.38;;;25.52;35.09
6835;BME280;3455;42.150;24.734;2022-10-16T06:41:02;68048.75;;;25.30;35.62
6835;BME280;3455;42.150;24.734;2022-10-16T06:43:30;68136.91;;;25.62;34.45
6835;BME280;3455;42.150;24.734;2022-10-16T06:46:00;68073.59;;;25.34;35.32
6835;BME280;3455;42.150;24.734;2022-10-16T06:48:27;68173.28;;;26.03;34.17
6835;BME280;3455;42.150;24.734;2022-10-16T06:50:58;68425.78;;;27.72;31.08
6835;BME280;3455;42.150;24.734;2022-10-16T06:53:28;68371.22;;;27.40;31.85
6835;BME280;3455;42.150;24.734;2022-10-16T06:55:55;68217.94;;;26.56;32.50
6835;BME280;3455;42.150;24.734;2022-10-16T06:58:23;68209.75;;;26.49;32.75
6835;BME280;3455;42.150;24.734;2022-10-16T07:00:55;68263.75;;;26.64;32.85
6835;BME280;3455;42.150;24.734;2022-10-16T07:03:23;68195.56;;;26.07;33.34
6835;BME280;3455;42.150;24.734;2022-10-16T07:05:50;68254.34;;;26.56;32.39
6835;BME280;3455;42.150;24.734;2022-10-16T07:08:17;68278.34;;;27.18;32.00
6835;BME280;3455;42.150;24.734;2022-10-16T07:10:45;68129.41;;;25.64;34.15
6835;BME280;3455;42.150;24.734;2022-10-16T07:13:11;68112.31;;;25.77;34.14
6835;BME280;3455;42.150;24.734;2022-10-16T07:15:40;68350.13;;;27.22;32.07
6835;BME280;3455;42.150;24.734;2022-10-16T07:18:07;68250.59;;;26.55;33.53
6835;BME280;3455;42.150;24.734;2022-10-16T07:20:35;68519.78;;;28.22;31.12
6835;BME280;3455;42.150;24.734;2022-10-16T07:23:02;68447.22;;;28.13;30.51
6835;BME280;3455;42.150;24.734;2022-10-16T07:25:29;68363.69;;;27.38;31.73
6835;BME280;3455;42.150;24.734;2022-10-16T07:27:56;68341.28;;;27.50;31.04
6835;BME280;3455;42.150;24.734;2022-10-16T07:30:24;68515.88;;;28.53;30.90
6835;BME280;3455;42.150;24.734;2022-10-16T07:32:51;68554.56;;;28.87;29.75
6835;BME280;3455;42.150;24.734;2022-10-16T07:35:28;68665.63;;;29.47;28.45
6835;BME280;3455;42.150;24.734;2022-10-16T07:37:56;68745.41;;;30.08;27.99
6835;BME280;3455;42.150;24.734;2022-10-16T07:40:23;68769.59;;;30.34;27.88
6835;BME280;3455;42.150;24.734;2022-10-16T07:42:52;68802.09;;;30.30;27.34
6835;BME280;3455;42.150;24.734;2022-10-16T07:45:19;68702.59;;;29.75;28.58
6835;BME280;3455;42.150;24.734;2022-10-16T07:47:45;68618.28;;;29.20;29.32
6835;BME280;3455;42.150;24.734;2022-10-16T07:50:12;68667.66;;;29.47;28.73
6835;BME280;3455;42.150;24.734;2022-10-16T07:52:39;68795.22;;;30.17;28.30
6835;BME280;3455;42.150;24.734;2022-10-16T07:55:08;68660.41;;;29.47;28.93
6835;BME280;3455;42.150;24.734;2022-10-16T07:57:35;68934.03;;;31.09;26.98
6835;BME280;3455;42.150;24.734;2022-10-16T08:00:02;69107.53;;;32.37;25.67
6835;BME280;3455;42.150;24.734;2022-10-16T08:02:29;69085.84;;;32.27;25.22
6835;BME280;3455;42.150;24.734;2022-10-16T08:04:55;69092.75;;;32.19;25.45
6835;BME280;3455;42.150;24.734;2022-10-16T08:07:22;68905.28;;;31.38;25.62
6835;BME280;3455;42.150;24.734;2022-10-16T08:09:49;68861.75;;;31.00;26.18
6835;BME280;3455;42.150;24.734;2022-10-16T08:12:18;69011.34;;;31.90;26.09
6835;BME280;3455;42.150;24.734;2022-10-16T08:14:45;68971.84;;;31.51;26.42
6835;BME280;3455;42.150;24.734;2022-10-16T08:17:14;69015.16;;;31.70;26.44
6835;BME280;3455;42.150;24.734;2022-10-16T08:19:44;69274.44;;;33.27;24.10
6835;BME280;3455;42.150;24.734;2022-10-16T08:22:11;69108.72;;;32.38;24.57
6835;BME280;3455;42.150;24.734;2022-10-16T08:24:38;69391.81;;;33.90;23.05
6835;BME280;3455;42.150;24.734;2022-10-16T08:27:05;69400.19;;;33.82;23.53
6835;BME280;3455;42.150;24.734;2022-10-16T08:29:33;69018.41;;;31.96;25.49
6835;BME280;3455;42.150;24.734;2022-10-16T08:32:00;69216.84;;;33.00;24.11
6835;BME280;3455;42.150;24.734;2022-10-16T08:34:27;69385.16;;;33.96;22.76
6835;BME280;3455;42.150;24.734;2022-10-16T08:36:54;69334.69;;;33.80;23.13
6835;BME280;3455;42.150;24.734;2022-10-16T08:39:20;69395.72;;;33.75;22.88
6835;BME280;3455;42.150;24.734;2022-10-16T08:42:12;69544.84;;;34.84;21.74
6835;BME280;3455;42.150;24.734;2022-10-16T08:44:57;69350.47;;;33.80;23.02
6835;BME280;3455;42.150;24.734;2022-10-16T08:47:39;69781.09;;;36.25;21.03
6835;BME280;3455;42.150;24.734;2022-10-16T08:50:12;69435.63;;;34.33;22.14
6835;BME280;3455;42.150;24.734;2022-10-16T08:52:42;69712.03;;;35.47;21.41
6835;BME280;3455;42.150;24.734;2022-10-16T08:55:19;69644.75;;;35.32;21.25
6835;BME280;3455;42.150;24.734;2022-10-16T08:57:49;69764.22;;;35.92;20.46
6835;BME280;3455;42.150;24.734;2022-10-16T09:00:18;69548.09;;;34.64;21.79
6835;BME280;3455;42.150;24.734;2022-10-16T09:02:50;69635.00;;;35.26;21.12
6835;BME280;3455;42.150;24.734;2022-10-16T09:05:26;69536.81;;;34.75;21.27
6835;BME280;3455;42.150;24.734;2022-10-16T09:08:04;69762.41;;;35.86;21.16
6835;BME280;3455;42.150;24.734;2022-10-16T09:10:44;69859.59;;;36.61;20.14
6835;BME280;3455;42.150;24.734;2022-10-16T09:13:21;69727.69;;;35.79;20.04
6835;BME280;3455;42.150;24.734;2022-10-16T09:15:56;69573.97;;;34.73;20.46
6835;BME280;3455;42.150;24.734;2022-10-16T09:18:34;69833.72;;;36.11;19.34
6835;BME280;3455;42.150;24.734;2022-10-16T09:21:09;69749.59;;;35.93;19.90
6835;BME280;3455;42.150;24.734;2022-10-16T09:23:49;69819.56;;;36.29;19.66
6835;BME280;3455;42.150;24.734;2022-10-16T09:26:32;69704.31;;;35.86;19.96
6835;BME280;3455;42.150;24.734;2022-10-16T09:28:58;69747.91;;;36.01;19.09
6835;BME280;3455;42.150;24.734;2022-10-16T09:31:26;69916.69;;;36.69;18.39
6835;BME280;3455;42.150;24.734;2022-10-16T09:33:55;70206.94;;;38.28;17.23
6835;BME280;3455;42.150;24.734;2022-10-16T09:36:25;69970.69;;;37.11;18.09
6835;BME280;3455;42.150;24.734;2022-10-16T09:39:03;70175.81;;;38.13;17.07
6835;BME280;3455;42.150;24.734;2022-10-16T09:41:30;70224.97;;;38.37;17.33
6835;BME280;3455;42.150;24.734;2022-10-16T09:44:01;70069.56;;;37.65;17.71
6835;BME280;3455;42.150;24.734;2022-10-16T09:46:32;70183.50;;;37.94;17.95
6835;BME280;3455;42.150;24.734;2022-10-16T09:49:01;69783.00;;;36.15;18.62
6835;BME280;3455;42.150;24.734;2022-10-16T09:51:29;69808.09;;;36.05;18.77
6835;BME280;3455;42.150;24.734;2022-10-16T09:53:59;69799.78;;;36.18;19.16
6835;BME280;3455;42.150;24.734;2022-10-16T09:56:28;69946.50;;;37.04;18.00
6835;BME280;3455;42.150;24.734;2022-10-16T09:58:56;70079.34;;;37.50;17.12
6835;BME280;3455;42.150;24.734;2022-10-16T10:01:30;70417.22;;;39.55;16.27
6835;BME280;3455;42.150;24.734;2022-10-16T10:03:58;70304.44;;;38.53;16.05
6835;BME280;3455;42.150;24.734;2022-10-16T10:06:30;70258.13;;;38.72;16.10
6835;BME280;3455;42.150;24.734;2022-10-16T10:09:00;70431.31;;;39.28;15.05
6835;BME280;3455;42.150;24.734;2022-10-16T10:11:43;69738.22;;;35.99;17.27
6835;BME280;3455;42.150;24.734;2022-10-16T10:14:21;70102.75;;;37.84;16.25
6835;BME280;3455;42.150;24.734;2022-10-16T10:16:51;70348.47;;;39.07;15.00
6835;BME280;3455;42.150;24.734;2022-10-16T10:19:20;70334.00;;;38.81;15.56
6835;BME280;3455;42.150;24.734;2022-10-16T10:21:48;70457.72;;;39.39;14.41
6835;BME280;3455;42.150;24.734;2022-10-16T10:24:16;70143.63;;;38.06;15.09
6835;BME280;3455;42.150;24.734;2022-10-16T10:26:49;70102.38;;;37.56;16.42
6835;BME280;3455;42.150;24.734;2022-10-16T10:29:38;70421.56;;;39.26;14.72
6835;BME280;3455;42.150;24.734;2022-10-16T10:32:19;69948.75;;;36.97;16.07
6835;BME280;3455;42.150;24.734;2022-10-16T10:35:02;69872.31;;;36.44;17.23
6835;BME280;3455;42.150;24.734;2022-10-16T10:37:42;70151.47;;;37.96;15.99
6835;BME280;3455;42.150;24.734;2022-10-16T10:40:21;70456.09;;;39.72;14.67
6835;BME280;3455;42.150;24.734;2022-10-16T10:42:54;70438.72;;;39.53;15.09
6835;BME280;3455;42.150;24.734;2022-10-16T10:45:26;70221.19;;;38.41;15.45
6835;BME280;3455;42.150;24.734;2022-10-16T10:48:06;70166.53;;;38.03;15.65
6835;BME280;3455;42.150;24.734;2022-10-16T10:50:42;70041.47;;;37.77;15.38
6835;BME280;3455;42.150;24.734;2022-10-16T10:53:23;69832.41;;;36.47;16.61
6835;BME280;3455;42.150;24.734;2022-10-16T10:55:55;70014.91;;;37.22;15.98
6835;BME280;3455;42.150;24.734;2022-10-16T10:58:58;70147.31;;;38.18;15.29
6835;BME280;3455;42.150;24.734;2022-10-16T11:01:34;70049.88;;;37.43;15.57
6835;BME280;3455;42.150;24.734;2022-10-16T11:04:22;70454.41;;;39.55;15.10
6835;BME280;3455;42.150;24.734;2022-10-16T11:06:55;70274.31;;;38.70;14.92
6835;BME280;3455;42.150;24.734;2022-10-16T11:09:25;70309.47;;;38.75;14.98
6835;BME280;3455;42.150;24.734;2022-10-16T11:11:58;70413.50;;;39.42;14.41
6835;BME280;3455;42.150;24.734;2022-10-16T11:14:29;70196.75;;;38.15;15.43
6835;BME280;3455;42.150;24.734;2022-10-16T11:17:04;70316.84;;;39.00;14.40
6835;BME280;3455;42.150;24.734;2022-10-16T11:19:41;70334.47;;;38.97;14.49
6835;BME280;3455;42.150;24.734;2022-10-16T11:22:13;69976.19;;;37.30;16.29
6835;BME280;3455;42.150;24.734;2022-10-16T11:24:46;70010.72;;;37.64;16.20
6835;BME280;3455;42.150;24.734;2022-10-16T11:27:17;69556.25;;;35.08;17.10
6835;BME280;3455;42.150;24.734;2022-10-16T11:29:49;69650.69;;;35.62;16.75
6835;BME280;3455;42.150;24.734;2022-10-16T11:32:22;70143.91;;;38.04;16.40
6835;BME280;3455;42.150;24.734;2022-10-16T11:34:57;70227.97;;;38.40;14.79
6835;BME280;3455;42.150;24.734;2022-10-16T11:37:32;70130.66;;;38.04;15.37
6835;BME280;3455;42.150;24.734;2022-10-16T11:40:10;70189.78;;;38.23;15.56
6835;BME280;3455;42.150;24.734;2022-10-16T11:42:48;70135.88;;;37.99;15.38
6835;BME280;3455;42.150;24.734;2022-10-16T11:45:26;70171.97;;;38.12;15.32
6835;BME280;3455;42.150;24.734;2022-10-16T11:48:00;70389.00;;;39.17;14.58
6835;BME280;3455;42.150;24.734;2022-10-16T11:50:33;70248.44;;;38.50;14.92
6835;BME280;3455;42.150;24.734;2022-10-16T11:53:04;70443.91;;;39.64;13.67
6835;BME280;3455;42.150;24.734;2022-10-16T11:55:38;70281.25;;;38.83;14.70
6835;BME280;3455;42.150;24.734;2022-10-16T11:58:09;70365.91;;;39.10;14.29
6835;BME280;3455;42.150;24.734;2022-10-16T12:00:43;70357.59;;;39.03;14.43
6835;BME280;3455;42.150;24.734;2022-10-16T12:03:19;70346.44;;;39.07;14.29
6835;BME280;3455;42.150;24.734;2022-10-16T12:06:06;70338.84;;;39.15;14.29
6835;BME280;3455;42.150;24.734;2022-10-16T12:08:38;70365.47;;;39.24;14.27
6835;BME280;3455;42.150;24.734;2022-10-16T12:11:20;70510.13;;;39.75;13.84
6835;BME280;3455;42.150;24.734;2022-10-16T12:13:49;70274.72;;;38.78;14.50
6835;BME280;3455;42.150;24.734;2022-10-16T12:16:23;70392.50;;;39.61;13.94
6835;BME280;3455;42.150;24.734;2022-10-16T12:19:03;70444.31;;;39.50;13.69
6835;BME280;3455;42.150;24.734;2022-10-16T12:21:36;70194.50;;;38.72;14.33
6835;BME280;3455;42.150;24.734;2022-10-16T12:24:05;70260.81;;;38.52;14.77
6835;BME280;3455;42.150;24.734;2022-10-16T12:26:33;70130.34;;;38.26;14.24
6835;BME280;3455;42.150;24.734;2022-10-16T12:29:14;70094.00;;;37.90;14.99
6835;BME280;3455;42.150;24.734;2022-10-16T12:31:49;70058.97;;;37.65;15.59
6835;BME280;3455;42.150;24.734;2022-10-16T12:34:22;70136.59;;;38.09;14.19
6835;BME280;3455;42.150;24.734;2022-10-16T12:36:53;70118.91;;;38.07;14.87
6835;BME280;3455;42.150;24.734;2022-10-16T12:39:22;69797.16;;;36.43;15.82
6835;BME280;3455;42.150;24.734;2022-10-16T12:42:00;69931.00;;;37.11;15.46
6835;BME280;3455;42.150;24.734;2022-10-16T12:44:32;69664.72;;;35.61;16.56
6835;BME280;3455;42.150;24.734;2022-10-16T12:46:59;69661.34;;;35.72;16.61
6835;BME280;3455;42.150;24.734;2022-10-16T12:49:32;69782.88;;;36.27;16.02
6835;BME280;3455;42.150;24.734;2022-10-16T12:52:00;69816.53;;;36.47;15.89
6835;BME280;3455;42.150;24.734;2022-10-16T12:54:28;69928.88;;;36.36;15.96
6835;BME280;3455;42.150;24.734;2022-10-16T12:57:08;69821.19;;;36.41;16.00
6835;BME280;3455;42.150;24.734;2022-10-16T12:59:42;69644.16;;;35.57;16.79
6835;BME280;3455;42.150;24.734;2022-10-16T13:05:26;69986.38;;;37.43;15.69
6835;BME280;3455;42.150;24.734;2022-10-16T13:08:10;69605.63;;;35.44;16.46
6835;BME280;3455;42.150;24.734;2022-10-16T13:10:52;69348.22;;;33.87;17.97
6835;BME280;3455;42.150;24.734;2022-10-16T13:13:34;69502.69;;;34.84;17.24
6835;BME280;3455;42.150;24.734;2022-10-16T13:16:14;69702.59;;;35.89;16.78
6835;BME280;3455;42.150;24.734;2022-10-16T13:18:53;69613.63;;;35.53;16.84
6835;BME280;3455;42.150;24.734;2022-10-16T13:21:33;69698.41;;;35.81;16.84
6835;BME280;3455;42.150;24.734;2022-10-16T13:24:14;69807.34;;;36.16;16.80
6835;BME280;3455;42.150;24.734;2022-10-16T13:26:49;69830.25;;;36.63;16.41
6835;BME280;3455;42.150;24.734;2022-10-16T13:29:19;69752.34;;;36.02;16.92
6835;BME280;3455;42.150;24.734;2022-10-16T13:31:46;69750.38;;;36.12;16.80